Time;durP1;ratioP1;P1;durP2;ratioP2;P2;SDS_P1;SDS_P2;PMS_P1;PMS_P2;Temp;Humidity;BMP_temperature;BMP_pressure;BME280_temperature;BME280_humidity;BME280_pressure;Samples;Min_cycle;Max_cycle;Signal;HPM_P1;HPM_P2
2022/07/01 00:00:43;;;;;;;6.73;6.33;;;;;;;19.57;92.07;99847.88;5052359;28;20217;-74
2022/07/01 00:03:09;;;;;;;6.77;6.27;;;;;;;19.51;92.38;99858.88;5052351;28;20205;-75
2022/07/01 00:05:36;;;;;;;7.00;6.33;;;;;;;19.51;92.25;99860.69;5052051;28;20205;-75
2022/07/01 00:08:04;;;;;;;6.93;6.37;;;;;;;19.54;91.90;99871.91;5052070;28;20278;-77
2022/07/01 00:10:31;;;;;;;6.50;6.10;;;;;;;19.38;92.76;99856.16;5052069;28;20212;-77
2022/07/01 00:12:58;;;;;;;7.13;6.63;;;;;;;19.30;93.01;99860.28;5052436;28;20274;-76
2022/07/01 00:15:24;;;;;;;7.20;6.70;;;;;;;19.27;93.14;99850.75;5049067;28;20228;-76
2022/07/01 00:17:51;;;;;;;8.43;7.67;;;;;;;19.25;93.01;99850.84;5046757;28;20282;-74
2022/07/01 00:20:18;;;;;;;9.23;8.53;;;;;;;19.12;94.22;99827.91;5051717;28;20690;-74
2022/07/01 00:22:44;;;;;;;9.10;8.50;;;;;;;19.13;94.06;99840.19;5051781;28;20800;-74
2022/07/01 00:25:12;;;;;;;10.40;9.70;;;;;;;19.13;94.15;99842.84;5051562;28;20228;-74
2022/07/01 00:27:39;;;;;;;11.07;10.27;;;;;;;19.20;93.51;99852.06;5051837;28;20221;-74
2022/07/01 00:30:07;;;;;;;11.07;10.37;;;;;;;19.28;93.08;99864.81;5051607;28;20213;-74
2022/07/01 00:32:34;;;;;;;12.87;11.90;;;;;;;19.17;93.71;99871.66;5052145;28;20235;-74
2022/07/01 00:35:00;;;;;;;12.70;11.90;;;;;;;19.17;93.57;99891.97;5051598;28;20201;-74
2022/07/01 00:37:27;;;;;;;12.17;11.37;;;;;;;19.22;92.91;99895.16;5051563;28;20236;-74
2022/07/01 00:39:53;;;;;;;13.53;12.73;;;;;;;19.10;92.91;99898.59;5051530;28;20263;-74
2022/07/01 00:42:21;;;;;;;13.63;12.83;;;;;;;18.83;93.78;99892.28;5051656;28;20267;-74
2022/07/01 00:44:47;;;;;;;12.97;12.17;;;;;;;18.78;94.08;99883.75;5051652;28;20224;-74
2022/07/01 00:47:14;;;;;;;13.10;12.30;;;;;;;18.60;94.28;99884.91;5042833;28;20221;-74
2022/07/01 00:49:41;;;;;;;14.93;13.83;;;;;;;18.49;95.23;99855.63;5051801;28;20213;-74
2022/07/01 00:52:09;;;;;;;14.43;13.33;;;;;;;18.42;95.18;99860.44;5051709;28;20213;-74
2022/07/01 00:54:38;;;;;;;13.93;12.73;;;;;;;18.28;95.74;99850.69;5055995;28;20301;-74
2022/07/01 00:57:07;;;;;;;15.63;14.63;;;;;;;18.04;97.33;99830.09;5055400;28;20306;-74
2022/07/01 00:59:36;;;;;;;14.90;13.97;;;;;;;18.05;97.34;99839.69;5055698;28;20211;-74
2022/07/01 01:02:03;;;;;;;14.63;13.43;;;;;;;18.21;97.29;99850.19;5055669;28;20254;-75
2022/07/01 01:04:29;;;;;;;12.10;11.30;;;;;;;18.40;95.17;99881.66;5055474;28;20262;-75
2022/07/01 01:06:57;;;;;;;11.07;10.30;;;;;;;18.37;93.91;99925.91;5055351;28;20281;-75
2022/07/01 01:09:23;;;;;;;11.53;10.63;;;;;;;18.29;93.51;99941.38;5055333;28;20213;-74
2022/07/01 01:11:50;;;;;;;12.13;11.33;;;;;;;18.08;94.37;99920.56;5055504;28;20208;-74
2022/07/01 01:14:16;;;;;;;11.80;11.07;;;;;;;18.20;93.59;99934.84;5055521;28;20210;-74
2022/07/01 01:16:44;;;;;;;11.10;10.30;;;;;;;18.29;93.04;99954.59;5046686;28;20627;-76
2022/07/01 01:19:10;;;;;;;11.27;10.47;;;;;;;18.06;93.91;99952.34;5055022;28;20258;-76
2022/07/01 01:21:38;;;;;;;10.77;10.03;;;;;;;17.88;94.46;99942.84;5054696;28;20255;-76
2022/07/01 01:24:08;;;;;;;11.30;10.60;;;;;;;17.95;94.48;99948.63;5055339;28;20232;-76
2022/07/01 01:26:34;;;;;;;9.27;8.67;;;;;;;18.03;93.69;99972.81;5055165;28;20256;-76
2022/07/01 01:29:00;;;;;;;9.07;8.57;;;;;;;18.00;92.79;99992.31;5054929;28;20212;-74
2022/07/01 01:31:33;;;;;;;10.43;9.73;;;;;;;17.85;92.93;100009.88;5054941;28;20262;-76
2022/07/01 01:33:59;;;;;;;9.10;8.50;;;;;;;17.88;94.06;99971.03;5054679;28;20665;-75
2022/07/01 01:36:26;;;;;;;9.77;9.17;;;;;;;17.76;93.84;99964.63;5054947;28;20216;-76
2022/07/01 01:38:54;;;;;;;10.10;9.50;;;;;;;17.89;93.05;99970.94;5055109;28;20207;-75
2022/07/01 01:41:21;;;;;;;10.77;10.07;;;;;;;17.85;92.86;99990.53;5054981;28;20748;-75
2022/07/01 01:43:47;;;;;;;10.60;9.80;;;;;;;17.92;92.82;99988.41;5054813;28;20232;-76
2022/07/01 01:46:14;;;;;;;10.17;9.57;;;;;;;17.82;93.05;100001.25;5046445;28;20206;-75
2022/07/01 01:48:40;;;;;;;10.60;9.90;;;;;;;17.70;93.70;99992.25;5054076;28;20709;-76
2022/07/01 01:51:07;;;;;;;10.67;9.97;;;;;;;17.62;94.14;99973.31;5054763;28;20208;-76
2022/07/01 01:53:33;;;;;;;11.07;10.37;;;;;;;17.67;94.40;99969.47;5054671;28;20207;-75
2022/07/01 01:56:01;;;;;;;11.30;10.60;;;;;;;17.76;94.31;99964.63;5054806;28;20286;-76
2022/07/01 01:58:27;;;;;;;11.10;10.30;;;;;;;17.52;94.71;99977.41;5054119;28;20275;-76
2022/07/01 02:00:54;;;;;;;10.90;10.20;;;;;;;17.46;95.58;99961.00;5054700;28;20270;-76
2022/07/01 02:03:20;;;;;;;10.80;10.00;;;;;;;17.31;96.72;99955.69;5053843;28;20689;-75
2022/07/01 02:05:47;;;;;;;8.33;7.83;;;;;;;17.06;96.53;99955.22;5054635;28;20228;-77
2022/07/01 02:08:13;;;;;;;7.63;7.13;;;;;;;17.00;96.34;99974.00;5054185;28;20261;-76
2022/07/01 02:10:40;;;;;;;8.27;7.77;;;;;;;17.11;95.82;99978.72;5054597;28;20277;-76
2022/07/01 02:13:07;;;;;;;10.03;6.23;;;;;;;17.07;95.68;99985.09;5054319;28;20212;-76
2022/07/01 02:15:34;;;;;;;6.27;5.80;;;;;;;17.21;95.44;99994.91;5049900;28;20223;-76
2022/07/01 02:18:00;;;;;;;7.20;6.57;;;;;;;17.25;95.27;100004.38;5049861;28;20306;-76
2022/07/01 02:20:26;;;;;;;6.83;6.33;;;;;;;17.21;95.04;100024.78;5053880;28;20228;-76
2022/07/01 02:22:53;;;;;;;5.83;5.50;;;;;;;17.41;94.40;100025.50;5054298;28;20278;-76
2022/07/01 02:25:20;;;;;;;2.57;2.47;;;;;;;17.39;91.33;100090.69;5053809;28;20227;-76
2022/07/01 02:27:46;;;;;;;1.80;1.70;;;;;;;17.25;90.02;100160.00;5053776;28;20260;-75
2022/07/01 02:30:14;;;;;;;1.77;1.40;;;;;;;16.97;91.67;100123.63;5053241;28;20212;-76
2022/07/01 02:32:40;;;;;;;1.50;1.40;;;;;;;16.98;90.77;100149.06;5054160;28;20221;-75
2022/07/01 02:35:07;;;;;;;0.90;0.90;;;;;;;16.93;90.04;100162.47;5053814;28;20262;-75
2022/07/01 02:37:34;;;;;;;1.60;0.90;;;;;;;17.09;88.98;100196.84;5053593;28;20228;-76
2022/07/01 02:40:00;;;;;;;0.70;0.70;;;;;;;17.04;88.75;100219.94;5053576;28;20212;-75
2022/07/01 02:42:27;;;;;;;1.60;0.97;;;;;;;17.04;88.48;100215.53;5053952;28;20208;-76
2022/07/01 02:44:53;;;;;;;0.73;0.73;;;;;;;16.81;89.17;100203.50;5053230;28;20228;-75
2022/07/01 02:47:22;;;;;;;1.00;1.00;;;;;;;16.68;89.87;100181.25;5045026;28;20230;-76
2022/07/01 02:49:48;;;;;;;1.10;1.00;;;;;;;16.66;90.67;100162.03;5053301;28;20673;-76
2022/07/01 02:52:16;;;;;;;1.17;1.10;;;;;;;16.46;91.39;100148.03;5053818;28;20212;-76
2022/07/01 02:54:43;;;;;;;1.30;1.20;;;;;;;16.60;91.47;100141.25;5053374;28;20200;-76
2022/07/01 02:57:09;;;;;;;1.50;1.40;;;;;;;16.58;91.95;100129.91;5053181;28;20274;-76
2022/07/01 02:59:36;;;;;;;1.67;1.57;;;;;;;16.55;91.49;100144.09;5053626;28;20211;-75
2022/07/01 03:02:02;;;;;;;2.03;1.63;;;;;;;16.44;91.42;100176.22;5053050;28;20618;-75
2022/07/01 03:04:30;;;;;;;2.30;2.20;;;;;;;16.36;91.97;100167.84;5053346;28;20283;-75
2022/07/01 03:06:57;;;;;;;2.43;2.23;;;;;;;16.55;91.35;100190.66;5053229;28;20228;-75
2022/07/01 03:09:23;;;;;;;2.50;2.10;;;;;;;16.57;90.88;100210.75;5052957;28;20257;-75
2022/07/01 03:11:50;;;;;;;2.03;1.93;;;;;;;16.46;91.68;100215.69;5052905;28;20241;-75
2022/07/01 03:14:16;;;;;;;2.43;2.23;;;;;;;16.40;91.64;100215.97;5053183;28;20215;-75
2022/07/01 03:16:43;;;;;;;3.07;2.53;;;;;;;16.24;91.76;100227.22;5043798;28;20269;-76
2022/07/01 03:19:09;;;;;;;2.47;2.07;;;;;;;16.27;91.04;100245.50;5052766;28;20610;-76
2022/07/01 03:21:37;;;;;;;2.33;2.13;;;;;;;16.19;90.23;100267.84;5052974;28;20211;-75
2022/07/01 03:24:04;;;;;;;1.90;1.80;;;;;;;16.27;89.25;100289.41;5052643;28;20269;-75
2022/07/01 03:26:30;;;;;;;2.30;2.10;;;;;;;16.30;89.10;100293.72;5052850;28;20212;-75
2022/07/01 03:28:56;;;;;;;1.90;1.77;;;;;;;16.26;89.23;100307.00;5052849;28;20266;-75
2022/07/01 03:31:23;;;;;;;1.70;1.60;;;;;;;16.24;88.91;100310.63;5048749;28;20241;-76
2022/07/01 03:33:49;;;;;;;1.83;1.33;;;;;;;16.27;89.35;100326.28;5032923;28;20207;-75
2022/07/01 03:36:16;;;;;;;2.17;1.67;;;;;;;16.27;88.54;100344.72;5032848;28;20267;-76
2022/07/01 03:38:45;;;;;;;2.27;1.53;;;;;;;16.32;88.64;100353.28;5032269;28;20203;-77
2022/07/01 03:41:11;;;;;;;2.00;1.50;;;;;;;16.19;90.42;100312.59;5032602;28;20211;-76
2022/07/01 03:43:37;;;;;;;2.73;2.10;;;;;;;15.92;93.05;100255.00;5037314;28;20245;-76
2022/07/01 03:46:04;;;;;;;2.03;1.90;;;;;;;15.77;94.53;100209.13;5044125;28;20318;-76
2022/07/01 03:48:30;;;;;;;2.83;2.07;;;;;;;15.77;95.32;100177.56;5051958;28;20733;-76
2022/07/01 03:50:57;;;;;;;3.03;2.40;;;;;;;15.61;96.90;100148.41;5052620;28;20253;-77
2022/07/01 03:56:08;;;;;;;2.20;2.07;;;;;;;15.47;99.16;100124.50;5052329;28;20653;-75
2022/07/01 03:58:35;;;;;;;3.40;2.10;;;;;;;15.41;99.78;100114.25;5051862;28;20273;-77
2022/07/01 04:01:01;;;;;;;3.73;2.50;;;;;;;15.54;100.00;100114.53;5052492;28;20621;-78
2022/07/01 04:03:28;;;;;;;2.60;2.40;;;;;;;15.55;100.00;100111.00;5052126;28;20252;-77
2022/07/01 04:05:54;;;;;;;4.10;2.67;;;;;;;15.63;100.00;100109.72;5052313;28;20227;-78
2022/07/01 04:08:21;;;;;;;2.17;1.97;;;;;;;15.73;99.45;100117.25;5051887;28;20234;-76
2022/07/01 04:10:48;;;;;;;2.03;1.93;;;;;;;15.59;98.79;100137.09;5052557;28;20206;-77
2022/07/01 04:13:15;;;;;;;3.03;2.03;;;;;;;15.26;99.11;100152.56;5051883;28;20221;-76
2022/07/01 04:15:42;;;;;;;2.73;1.60;;;;;;;15.09;99.62;100135.75;5046906;28;20196;-76
2022/07/01 04:18:08;;;;;;;2.10;1.90;;;;;;;15.06;100.00;100140.28;5048940;28;20226;-76
2022/07/01 04:20:34;;;;;;;3.03;2.10;;;;;;;15.27;100.00;100118.31;5051940;28;20239;-77
2022/07/01 04:23:00;;;;;;;1.90;1.80;;;;;;;15.44;99.52;100124.59;5051979;28;20270;-76
2022/07/01 04:25:29;;;;;;;1.70;1.60;;;;;;;15.36;97.60;100147.78;5052070;28;20622;-74
2022/07/01 04:27:56;;;;;;;1.80;1.70;;;;;;;15.03;98.59;100145.69;5051633;28;20253;-77
2022/07/01 04:30:24;;;;;;;2.03;1.70;;;;;;;15.21;99.19;100150.16;5051898;28;20306;-76
2022/07/01 04:32:50;;;;;;;1.83;1.73;;;;;;;15.12;99.26;100137.38;5051739;28;20211;-76
2022/07/01 04:35:17;;;;;;;2.00;1.90;;;;;;;15.10;100.00;100133.97;5051816;28;20575;-77
2022/07/01 04:37:43;;;;;;;1.70;1.60;;;;;;;15.06;100.00;100140.28;5051769;28;20572;-76
2022/07/01 04:40:10;;;;;;;2.03;1.83;;;;;;;15.12;100.00;100137.38;5051820;28;20226;-77
2022/07/01 04:42:36;;;;;;;1.70;1.60;;;;;;;15.17;99.67;100153.81;5051977;28;20207;-76
2022/07/01 04:45:03;;;;;;;1.70;1.43;;;;;;;15.42;99.61;100144.88;5049968;28;20233;-76
2022/07/01 04:47:32;;;;;;;1.70;1.60;;;;;;;15.66;99.57;100156.09;5047749;28;20631;-76
2022/07/01 04:50:01;;;;;;;2.73;1.60;;;;;;;15.70;98.35;100184.00;5031754;28;20204;-77
2022/07/01 04:52:28;;;;;;;1.90;1.80;;;;;;;15.49;97.59;100199.78;5031691;28;20208;-75
2022/07/01 04:54:54;;;;;;;5.80;2.47;;;;;;;15.43;98.18;100201.81;5031481;28;20283;-77
2022/07/01 04:57:20;;;;;;;2.67;2.30;;;;;;;15.46;97.88;100197.28;5031695;28;20236;-76
2022/07/01 04:59:47;;;;;;;2.33;2.10;;;;;;;15.46;98.11;100204.31;5031498;28;20252;-77
2022/07/01 05:02:13;;;;;;;2.20;2.10;;;;;;;15.41;97.65;100199.25;5031765;28;20203;-76
2022/07/01 05:04:41;;;;;;;2.40;2.20;;;;;;;15.22;98.60;100204.47;5031637;28;20346;-76
2022/07/01 05:07:27;;;;;;;2.93;2.03;;;;;;;15.53;98.65;100189.97;5039570;28;20340;-75
2022/07/01 05:09:54;;;;;;;2.90;1.70;;;;;;;15.49;97.07;100222.59;5041781;28;20210;-78
2022/07/01 05:12:20;;;;;;;2.67;2.30;;;;;;;15.53;97.42;100234.69;5041189;28;20206;-77
2022/07/01 05:14:47;;;;;;;1.70;1.60;;;;;;;15.47;97.64;100213.94;5040480;28;20616;-77
2022/07/01 05:17:14;;;;;;;2.47;1.83;;;;;;;15.63;97.45;100216.75;5045453;28;20225;-77
2022/07/01 05:22:26;;;;;;;1.57;1.47;;;;;;;15.53;97.13;100231.22;5031477;28;20217;-77
2022/07/01 05:24:53;;;;;;;2.40;1.77;;;;;;;15.30;97.43;100240.94;5031239;28;20643;-77
2022/07/01 05:27:19;;;;;;;2.50;1.90;;;;;;;15.21;97.68;100250.06;5031275;28;20281;-77
2022/07/01 05:29:45;;;;;;;2.17;1.90;;;;;;;15.42;97.70;100242.19;5031648;28;20213;-77
2022/07/01 05:32:12;;;;;;;2.07;1.80;;;;;;;15.37;96.98;100271.31;5031288;28;20250;-76
2022/07/01 05:34:40;;;;;;;2.43;2.20;;;;;;;15.38;96.70;100270.41;5031467;28;20211;-76
2022/07/01 05:37:08;;;;;;;2.30;2.07;;;;;;;15.59;96.88;100270.44;5031460;28;20234;-77
2022/07/01 05:39:34;;;;;;;4.10;2.40;;;;;;;15.47;96.19;100295.47;5033460;28;20211;-75
2022/07/01 05:42:01;;;;;;;3.07;2.83;;;;;;;15.34;96.00;100303.03;5035110;28;20256;-76
2022/07/01 05:44:27;;;;;;;2.87;2.67;;;;;;;15.38;95.49;100309.88;5037416;28;20728;-78
2022/07/01 05:46:53;;;;;;;2.30;2.20;;;;;;;15.27;94.51;100339.22;5048059;28;20286;-77
2022/07/01 05:49:20;;;;;;;3.23;2.57;;;;;;;15.16;95.50;100325.63;5053586;28;20210;-76
2022/07/01 05:51:46;;;;;;;3.47;2.60;;;;;;;15.24;95.53;100322.69;5054768;28;20205;-75
2022/07/01 05:54:14;;;;;;;3.60;3.30;;;;;;;15.53;95.40;100323.31;5054590;28;20691;-76
2022/07/01 05:56:40;;;;;;;2.93;2.73;;;;;;;15.39;93.26;100365.97;5054512;28;20222;-76
2022/07/01 05:59:08;;;;;;;3.20;3.00;;;;;;;15.29;93.23;100368.94;5054487;28;20252;-76
2022/07/01 06:01:34;;;;;;;3.57;3.37;;;;;;;15.18;94.10;100355.38;5054406;28;20243;-76
2022/07/01 06:04:01;;;;;;;3.10;2.90;;;;;;;15.16;94.24;100346.66;5054380;28;20209;-77
2022/07/01 06:06:27;;;;;;;4.07;3.77;;;;;;;15.09;94.88;100355.72;5054482;28;20224;-76
2022/07/01 06:08:54;;;;;;;3.23;3.03;;;;;;;15.10;94.81;100333.75;5053936;28;20201;-76
2022/07/01 06:11:21;;;;;;;3.33;3.13;;;;;;;15.27;94.95;100327.84;5054565;28;20214;-77
2022/07/01 06:13:48;;;;;;;3.47;3.17;;;;;;;15.10;93.97;100352.16;5054078;28;20213;-76
2022/07/01 06:16:14;;;;;;;3.70;3.40;;;;;;;14.97;94.21;100358.84;5052704;28;20257;-75
2022/07/01 06:18:41;;;;;;;3.87;3.60;;;;;;;14.96;95.28;100330.81;5047391;28;20222;-76
2022/07/01 06:21:07;;;;;;;3.87;3.57;;;;;;;15.11;95.01;100319.72;5054081;28;20232;-77
2022/07/01 06:23:33;;;;;;;4.47;4.17;;;;;;;15.17;93.95;100339.66;5054247;28;20210;-76
2022/07/01 06:26:00;;;;;;;4.43;4.13;;;;;;;15.03;94.44;100348.09;5054148;28;20226;-77
2022/07/01 06:28:29;;;;;;;5.10;4.70;;;;;;;15.07;94.59;100342.63;5053497;28;20230;-77
2022/07/01 06:30:56;;;;;;;5.17;4.77;;;;;;;14.99;93.93;100346.50;5053530;28;20222;-77
2022/07/01 06:33:23;;;;;;;5.17;4.70;;;;;;;14.99;94.64;100344.72;5054608;28;20201;-76
2022/07/01 06:35:49;;;;;;;5.27;4.83;;;;;;;15.15;94.56;100347.59;5055112;28;20216;-77
2022/07/01 06:38:15;;;;;;;5.67;5.13;;;;;;;15.16;95.25;100348.44;5053598;28;20229;-77
2022/07/01 06:40:42;;;;;;;5.30;4.90;;;;;;;15.07;94.06;100357.56;5053952;28;20671;-76
2022/07/01 06:43:08;;;;;;;6.23;5.73;;;;;;;15.23;94.56;100361.28;5053814;28;20210;-77
2022/07/01 06:45:36;;;;;;;5.17;4.87;;;;;;;15.28;94.12;100354.09;5054119;28;20276;-76
2022/07/01 06:48:03;;;;;;;6.10;5.67;;;;;;;15.43;93.20;100378.06;5045556;28;20215;-77
2022/07/01 06:50:29;;;;;;;5.57;5.17;;;;;;;15.30;93.18;100396.09;5032514;28;20215;-77
2022/07/01 06:52:56;;;;;;;5.70;5.30;;;;;;;15.25;93.89;100387.53;5033609;28;20765;-76
2022/07/01 06:55:22;;;;;;;6.20;5.70;;;;;;;15.37;93.60;100384.41;5033752;28;20256;-77
2022/07/01 06:57:48;;;;;;;5.50;5.10;;;;;;;15.32;92.97;100391.66;5033004;28;20254;-77
2022/07/01 07:00:15;;;;;;;5.97;5.30;;;;;;;15.30;93.48;100372.41;5033626;28;20212;-77
2022/07/01 07:02:43;;;;;;;5.60;5.10;;;;;;;15.47;94.87;100340.19;5033590;28;20265;-77
2022/07/01 07:05:10;;;;;;;5.93;5.40;;;;;;;15.42;94.42;100332.50;5033536;28;20216;-77
2022/07/01 07:07:36;;;;;;;5.60;5.20;;;;;;;15.55;95.04;100329.34;5032971;28;20874;-76
2022/07/01 07:10:03;;;;;;;5.60;5.20;;;;;;;15.46;93.90;100352.50;5033424;28;20211;-77
2022/07/01 07:12:30;;;;;;;6.00;5.63;;;;;;;15.49;94.87;100369.91;5034659;28;20213;-78
2022/07/01 07:14:56;;;;;;;6.57;6.07;;;;;;;15.46;94.69;100383.19;5041496;28;20217;-78
2022/07/01 07:17:22;;;;;;;7.00;6.50;;;;;;;15.48;94.24;100408.53;5039507;28;20222;-79
2022/07/01 07:19:50;;;;;;;6.87;6.37;;;;;;;15.67;94.91;100405.16;5041480;28;20209;-77
2022/07/01 07:22:17;;;;;;;7.00;6.50;;;;;;;15.78;95.26;100381.94;5043796;28;20207;-77
2022/07/01 07:24:43;;;;;;;8.57;7.87;;;;;;;15.88;95.38;100385.88;5039225;28;20199;-78
2022/07/01 07:27:10;;;;;;;8.37;7.67;;;;;;;15.75;94.87;100405.72;5040700;28;20230;-78
2022/07/01 07:29:36;;;;;;;9.43;8.67;;;;;;;15.68;95.33;100405.09;5041116;28;20213;-78
2022/07/01 07:32:03;;;;;;;9.47;8.77;;;;;;;15.59;95.25;100404.63;5038447;28;20211;-77
2022/07/01 07:34:30;;;;;;;9.87;9.13;;;;;;;15.69;95.48;100414.69;5049314;28;20209;-77
2022/07/01 07:36:57;;;;;;;9.23;8.63;;;;;;;15.80;95.20;100419.56;5052180;28;20256;-77
2022/07/01 07:39:24;;;;;;;9.20;8.60;;;;;;;15.55;95.91;100426.72;5052132;28;20210;-77
2022/07/01 07:41:50;;;;;;;9.40;8.57;;;;;;;15.52;96.69;100403.13;5052352;28;20900;-78
2022/07/01 07:44:17;;;;;;;9.60;8.90;;;;;;;15.51;96.69;100412.81;5052618;28;20214;-76
2022/07/01 07:46:43;;;;;;;8.70;8.00;;;;;;;15.66;96.08;100425.34;5046971;28;20222;-77
2022/07/01 07:49:10;;;;;;;8.80;8.20;;;;;;;15.80;96.06;100427.47;5049506;28;20695;-77
2022/07/01 07:51:37;;;;;;;8.50;7.90;;;;;;;15.64;95.35;100439.50;5052117;28;20211;-78
2022/07/01 07:54:05;;;;;;;9.77;9.10;;;;;;;15.62;97.05;100412.41;5051873;28;20207;-78
2022/07/01 07:56:31;;;;;;;9.27;8.67;;;;;;;15.51;97.83;100397.03;5052163;28;20202;-78
2022/07/01 07:58:58;;;;;;;9.53;8.93;;;;;;;15.61;97.84;100392.25;5052212;28;20210;-78
2022/07/01 08:01:24;;;;;;;8.90;8.20;;;;;;;15.51;97.54;100402.28;5051502;28;20670;-78
2022/07/01 08:03:51;;;;;;;8.77;8.20;;;;;;;15.48;98.20;100392.75;5052417;28;20207;-78
2022/07/01 08:06:18;;;;;;;9.97;9.23;;;;;;;15.37;99.15;100378.31;5051715;28;20272;-78
2022/07/01 08:08:45;;;;;;;9.10;8.50;;;;;;;15.58;98.45;100381.84;5052022;28;20251;-78
2022/07/01 08:11:13;;;;;;;9.40;8.70;;;;;;;15.71;98.19;100384.84;5052012;28;20208;-78
2022/07/01 08:13:39;;;;;;;9.27;8.67;;;;;;;15.62;96.87;100400.09;5051895;28;20267;-78
2022/07/01 08:16:06;;;;;;;10.47;9.80;;;;;;;15.38;98.55;100383.53;5051267;28;20673;-78
2022/07/01 08:18:33;;;;;;;10.47;9.67;;;;;;;15.44;98.33;100378.00;5043749;28;20859;-78
2022/07/01 08:20:59;;;;;;;10.97;10.17;;;;;;;15.27;99.45;100360.25;5051699;28;20209;-77
2022/07/01 08:23:25;;;;;;;11.03;10.23;;;;;;;15.28;99.42;100350.59;5051705;28;20206;-78
2022/07/01 08:25:52;;;;;;;11.17;10.37;;;;;;;15.21;99.71;100349.97;5051859;28;20209;-78
2022/07/01 08:28:20;;;;;;;10.60;9.73;;;;;;;15.14;99.64;100360.81;5051598;28;20302;-78
2022/07/01 08:30:47;;;;;;;10.27;9.47;;;;;;;15.17;99.28;100364.16;5051719;28;20639;-78
2022/07/01 08:33:13;;;;;;;8.97;8.37;;;;;;;15.05;99.11;100378.66;5051424;28;20209;-77
2022/07/01 08:35:40;;;;;;;10.57;9.57;;;;;;;15.16;99.48;100369.47;5051503;28;20752;-78
2022/07/01 08:38:06;;;;;;;8.30;7.70;;;;;;;15.32;98.57;100396.03;5051642;28;20221;-78
2022/07/01 08:40:33;;;;;;;7.93;7.33;;;;;;;15.19;97.43;100428.06;5051818;28;20282;-77
2022/07/01 08:43:01;;;;;;;7.57;7.07;;;;;;;15.33;97.93;100418.81;5051937;28;20216;-78
2022/07/01 08:45:31;;;;;;;7.33;6.73;;;;;;;15.52;97.67;100429.44;5051667;28;20232;-77
2022/07/01 08:48:00;;;;;;;8.00;7.40;;;;;;;15.43;94.99;100480.66;5042901;28;20229;-76
2022/07/01 08:50:28;;;;;;;7.53;7.03;;;;;;;15.17;94.86;100497.41;5051836;28;20205;-79
2022/07/01 08:52:54;;;;;;;6.50;6.10;;;;;;;14.97;93.62;100551.56;5051472;28;20256;-78
2022/07/01 08:55:21;;;;;;;7.37;6.97;;;;;;;14.98;92.69;100566.41;5051595;28;20209;-77
2022/07/01 08:57:48;;;;;;;6.93;6.53;;;;;;;15.11;93.65;100558.13;5051625;28;20224;-78
2022/07/01 09:00:16;;;;;;;7.20;6.77;;;;;;;15.13;92.60;100578.19;5051571;28;20650;-78
2022/07/01 09:02:58;;;;;;;7.43;6.90;;;;;;;15.04;93.39;100570.59;5051708;28;20207;-77
2022/07/01 09:05:26;;;;;;;7.30;6.80;;;;;;;15.31;92.53;100578.44;5051819;28;20201;-78
2022/07/01 09:07:59;;;;;;;7.10;6.70;;;;;;;15.27;92.35;100588.22;5051597;28;20237;-77
2022/07/01 09:10:26;;;;;;;7.83;7.27;;;;;;;15.43;93.37;100573.56;5051342;28;20387;-77
2022/07/01 09:12:52;;;;;;;7.97;7.40;;;;;;;15.49;92.26;100588.28;5043857;28;20203;-78
2022/07/01 09:15:21;;;;;;;6.67;6.17;;;;;;;15.55;91.67;100618.78;5046210;28;20269;-77
2022/07/01 09:17:47;;;;;;;6.77;6.37;;;;;;;15.60;89.87;100658.91;5043770;28;20262;-78
2022/07/01 09:20:26;;;;;;;7.43;6.73;;;;;;;15.45;90.08;100674.34;5045383;28;20194;-77
2022/07/01 09:23:00;;;;;;;7.70;7.10;;;;;;;15.29;89.93;100688.94;5041795;28;20191;-77
2022/07/01 09:25:28;;;;;;;7.77;7.33;;;;;;;15.35;91.19;100641.38;5043335;28;20601;-79
2022/07/01 09:28:04;;;;;;;8.03;7.33;;;;;;;15.51;90.71;100633.81;5044903;28;20578;-78
2022/07/01 09:30:32;;;;;;;7.63;6.93;;;;;;;15.49;89.88;100670.69;5040984;28;20256;-78
2022/07/01 09:33:06;;;;;;;7.47;6.97;;;;;;;15.52;89.05;100682.00;5044892;28;20185;-78
2022/07/01 09:35:35;;;;;;;8.43;7.80;;;;;;;15.52;89.32;100696.06;5041220;28;20276;-78
2022/07/01 09:38:01;;;;;;;8.50;7.90;;;;;;;15.50;90.09;100671.56;5043626;28;20222;-78
2022/07/01 09:40:46;;;;;;;8.10;7.50;;;;;;;15.83;89.89;100660.75;5045712;28;20685;-78
2022/07/01 09:43:15;;;;;;;8.40;7.80;;;;;;;15.65;89.76;100670.16;5037859;28;20200;-77
2022/07/01 09:45:53;;;;;;;8.80;8.20;;;;;;;15.67;90.41;100665.69;5045421;28;20675;-78
2022/07/01 09:48:20;;;;;;;8.83;8.07;;;;;;;15.93;89.76;100667.38;5044355;28;20233;-78
2022/07/01 09:50:49;;;;;;;8.77;8.17;;;;;;;16.00;89.76;100675.91;5045281;28;20223;-78
2022/07/01 09:53:16;;;;;;;8.77;8.17;;;;;;;16.03;89.07;100689.81;5044011;28;20200;-77
2022/07/01 09:55:42;;;;;;;8.60;7.90;;;;;;;15.79;88.25;100723.16;5051394;28;20694;-77
2022/07/01 09:58:09;;;;;;;8.83;8.23;;;;;;;15.81;87.85;100736.28;5054347;28;20227;-76
2022/07/01 10:00:37;;;;;;;9.57;8.87;;;;;;;15.89;88.65;100718.44;5045370;28;20610;-77
2022/07/01 10:03:05;;;;;;;9.53;8.93;;;;;;;16.03;87.74;100729.31;4345456;28;10000821;-76
2022/07/01 10:05:36;;;;;;;10.20;9.40;;;;;;;16.21;88.03;100727.78;5034633;28;20618;-77
2022/07/01 10:08:17;;;;;;;8.97;8.30;;;;;;;16.04;86.46;100793.38;5038047;28;20752;-77
2022/07/01 10:10:49;;;;;;;9.17;8.57;;;;;;;15.96;86.11;100783.13;5040253;28;20246;-77
2022/07/01 10:13:18;;;;;;;9.67;8.97;;;;;;;16.04;87.43;100759.16;5048168;28;20199;-76
2022/07/01 10:15:48;;;;;;;10.13;9.33;;;;;;;16.25;86.47;100771.53;5051479;28;20263;-78
2022/07/01 10:18:22;;;;;;;8.23;7.67;;;;;;;16.54;85.65;100787.16;5042432;28;20226;-77
2022/07/01 10:20:49;;;;;;;9.80;9.10;;;;;;;16.66;84.68;100828.84;5051145;28;20227;-78
2022/07/01 10:23:20;;;;;;;8.30;7.70;;;;;;;16.86;84.16;100841.31;5051143;28;20260;-77
2022/07/01 10:25:48;;;;;;;8.27;7.57;;;;;;;16.95;82.42;100893.69;5050613;28;20622;-77
2022/07/01 10:28:17;;;;;;;8.43;7.83;;;;;;;16.86;81.33;100938.88;5050578;28;20296;-77
2022/07/01 10:30:51;;;;;;;9.60;8.80;;;;;;;16.70;82.69;100916.59;5050869;28;20210;-77
2022/07/01 10:33:40;;;;;;;9.33;8.63;;;;;;;16.93;82.64;100890.25;5051500;28;20207;-78
2022/07/01 10:36:10;;;;;;;8.53;7.90;;;;;;;16.81;83.17;100873.13;5050475;28;20215;-76
2022/07/01 10:39:13;;;;;;;10.17;9.43;;;;;;;16.79;81.91;100909.22;5050651;28;20232;-77
2022/07/01 10:41:41;;;;;;;10.13;9.33;;;;;;;16.68;83.70;100871.81;5050768;28;20217;-76
2022/07/01 10:44:09;;;;;;;9.27;8.67;;;;;;;16.81;82.61;100867.84;5050914;28;20214;-77
2022/07/01 10:46:43;;;;;;;9.57;8.87;;;;;;;16.85;82.28;100876.50;5050289;28;20566;-77
2022/07/01 10:49:12;;;;;;;9.50;8.90;;;;;;;16.50;82.54;100857.56;5032886;28;20297;-77
2022/07/01 10:51:49;;;;;;;9.47;8.77;;;;;;;16.43;82.57;100858.69;5030589;28;20243;-77
2022/07/01 10:54:48;;;;;;;9.80;9.10;;;;;;;16.46;81.91;100883.16;5030759;28;20264;-78
2022/07/01 10:57:32;;;;;;;9.43;8.70;;;;;;;16.39;82.13;100871.13;5030124;28;20268;-77
2022/07/01 11:00:31;;;;;;;10.30;9.60;;;;;;;16.37;83.93;100832.56;5030801;28;20220;-77
2022/07/01 11:03:07;;;;;;;10.20;9.50;;;;;;;16.53;82.53;100856.56;5030424;28;20238;-76
2022/07/01 11:05:35;;;;;;;9.80;9.07;;;;;;;16.61;82.41;100870.31;5030389;28;20199;-77
2022/07/01 11:08:01;;;;;;;10.83;10.00;;;;;;;16.74;83.20;100842.59;5030169;28;20777;-76
2022/07/01 11:10:29;;;;;;;9.93;9.13;;;;;;;16.96;81.67;100870.81;5030719;28;20207;-77
2022/07/01 11:12:56;;;;;;;9.70;8.83;;;;;;;17.05;81.03;100879.22;5030098;28;20214;-77
2022/07/01 11:15:23;;;;;;;10.97;10.07;;;;;;;16.93;80.95;100911.34;5032762;28;20210;-77
2022/07/01 11:17:50;;;;;;;10.13;9.33;;;;;;;17.13;80.65;100917.66;5043605;28;20557;-77
2022/07/01 11:20:17;;;;;;;9.77;9.07;;;;;;;17.15;80.44;100921.09;5030906;28;20237;-76
2022/07/01 11:22:44;;;;;;;8.73;8.23;;;;;;;17.00;78.49;100968.22;5031094;28;20208;-78
2022/07/01 11:25:13;;;;;;;8.37;7.67;;;;;;;16.90;76.90;101021.38;5030645;28;20205;-77
2022/07/01 11:27:45;;;;;;;8.20;7.60;;;;;;;16.79;76.74;101037.53;5029829;28;20335;-78
2022/07/01 11:30:13;;;;;;;9.23;8.40;;;;;;;16.83;78.89;101018.09;5029968;28;20248;-77
2022/07/01 11:32:41;;;;;;;8.63;8.03;;;;;;;16.91;78.61;100994.06;5029819;28;20211;-77